Time;durP1;ratioP1;P1;durP2;ratioP2;P2;SDS_P1;SDS_P2;PMS_P1;PMS_P2;Temp;Humidity;BMP_temperature;BMP_pressure;BME280_temperature;BME280_humidity;BME280_pressure;Samples;Min_cycle;Max_cycle;Signal;HPM_P1;HPM_P2
2021/06/20 00:01:42;;;;;;;24.08;21.15;;;21.40;93.40;;;;;;5052368;28;20405;-89
2021/06/20 00:04:07;;;;;;;23.05;20.65;;;21.40;93.50;;;;;;5040353;28;20040;-88
2021/06/20 00:06:38;;;;;;;25.00;22.50;;;21.40;93.60;;;;;;5023878;28;20021;-89
2021/06/20 00:09:12;;;;;;;22.60;19.92;;;21.30;93.60;;;;;;5059208;28;20052;-89
2021/06/20 00:11:41;;;;;;;24.05;21.65;;;21.30;93.70;;;;;;5063249;28;20032;-89
2021/06/20 00:14:07;;;;;;;25.55;22.85;;;21.30;93.80;;;;;;5056341;28;20154;-88
2021/06/20 00:16:34;;;;;;;24.77;22.30;;;21.30;93.90;;;;;;5057829;28;20028;-88
2021/06/20 00:19:00;;;;;;;23.77;21.33;;;21.30;94.00;;;;;;5023639;28;20021;-88
2021/06/20 00:21:26;;;;;;;25.25;22.60;;;21.30;94.00;;;;;;5073102;28;20051;-89
2021/06/20 00:23:53;;;;;;;23.70;21.27;;;21.30;94.10;;;;;;5055641;28;20490;-89
2021/06/20 00:26:19;;;;;;;23.92;21.65;;;21.20;94.10;;;;;;5060043;28;20035;-88
2021/06/20 00:28:45;;;;;;;24.63;22.20;;;21.20;94.20;;;;;;5056033;28;20041;-89
2021/06/20 00:31:12;;;;;;;24.73;22.20;;;21.20;94.30;;;;;;5070219;28;20116;-88
2021/06/20 00:33:39;;;;;;;24.02;21.70;;;21.20;94.40;;;;;;5064211;28;20016;-87
2021/06/20 00:36:05;;;;;;;21.80;19.63;;;21.20;94.40;;;;;;5076219;28;20028;-87
2021/06/20 00:38:31;;;;;;;22.48;20.27;;;21.20;94.40;;;;;;5047634;28;20028;-89
2021/06/20 00:40:57;;;;;;;22.13;19.77;;;21.20;94.60;;;;;;5022677;28;20025;-88
2021/06/20 00:43:22;;;;;;;22.45;19.50;;;21.20;94.60;;;;;;5047236;28;20020;-88
2021/06/20 00:45:48;;;;;;;20.52;18.50;;;21.20;94.60;;;;;;5026916;28;20554;-88
2021/06/20 00:48:14;;;;;;;21.85;19.55;;;21.20;94.70;;;;;;5039898;28;20020;-88
2021/06/20 00:50:40;;;;;;;23.70;20.45;;;21.20;94.70;;;;;;5023075;28;20021;-88
2021/06/20 00:53:06;;;;;;;22.48;20.05;;;21.20;94.70;;;;;;5040083;28;20074;-88
2021/06/20 00:55:34;;;;;;;22.40;20.10;;;21.20;94.80;;;;;;5062310;28;20489;-88
2021/06/20 00:58:04;;;;;;;21.70;19.50;;;21.30;94.80;;;;;;5059066;28;20142;-88
2021/06/20 01:00:31;;;;;;;22.45;20.17;;;21.30;94.90;;;;;;5073564;28;20052;-88
2021/06/20 01:02:57;;;;;;;21.50;19.25;;;21.30;94.90;;;;;;5038803;28;20036;-88
2021/06/20 01:05:23;;;;;;;37.47;20.60;;;21.30;94.90;;;;;;5038918;28;20031;-88
2021/06/20 01:07:51;;;;;;;21.23;19.08;;;21.30;94.90;;;;;;5064421;28;20029;-89
2021/06/20 01:10:19;;;;;;;20.50;18.42;;;21.30;95.00;;;;;;5056785;28;20551;-89
2021/06/20 01:12:45;;;;;;;20.70;18.65;;;21.20;94.90;;;;;;5062678;28;20063;-88
2021/06/20 01:15:12;;;;;;;20.20;18.10;;;21.30;95.00;;;;;;5022220;28;20032;-88
2021/06/20 01:17:39;;;;;;;19.73;17.60;;;21.30;95.00;;;;;;5055040;28;20020;-89
2021/06/20 01:20:07;;;;;;;19.67;17.77;;;21.20;95.10;;;;;;5055203;28;20020;-88
2021/06/20 01:22:35;;;;;;;19.20;17.40;;;21.30;95.20;;;;;;5067832;28;20020;-88
2021/06/20 01:25:14;;;;;;;19.17;17.17;;;21.30;95.20;;;;;;5038573;28;20028;-89
2021/06/20 01:30:30;;;;;;;17.85;15.88;;;21.30;95.20;;;;;;4988830;28;20058;-88
2021/06/20 01:32:59;;;;;;;16.05;14.15;;;21.30;95.30;;;;;;4990602;28;20018;-87
2021/06/20 01:35:25;;;;;;;15.05;13.55;;;21.30;95.30;;;;;;4976306;28;20038;-87
2021/06/20 01:37:52;;;;;;;13.63;12.07;;;21.30;95.30;;;;;;4991181;28;20020;-88
2021/06/20 01:40:19;;;;;;;14.77;13.05;;;21.30;95.30;;;;;;4967117;28;20033;-87
2021/06/20 01:42:46;;;;;;;15.85;13.38;;;21.30;95.40;;;;;;4957027;28;20018;-87
2021/06/20 01:45:14;;;;;;;16.35;14.70;;;21.30;95.40;;;;;;4973223;28;20025;-88
2021/06/20 01:47:40;;;;;;;16.20;14.55;;;21.40;95.50;;;;;;4986451;28;20114;-87
2021/06/20 01:50:09;;;;;;;17.00;15.18;;;21.30;95.50;;;;;;4940952;28;20247;-88
2021/06/20 01:52:36;;;;;;;16.85;15.07;;;21.30;95.50;;;;;;4972734;28;20427;-88
2021/06/20 01:55:02;;;;;;;18.42;15.43;;;21.30;95.50;;;;;;4940726;28;20537;-87
2021/06/20 01:57:46;;;;;;;16.23;14.60;;;21.30;95.50;;;;;;4983962;28;20041;-87
2021/06/20 02:00:15;;;;;;;17.45;15.65;;;21.30;95.60;;;;;;4965044;28;20427;-87
2021/06/20 02:02:41;;;;;;;16.95;15.27;;;21.30;95.60;;;;;;4997883;28;20031;-87
2021/06/20 02:05:08;;;;;;;17.13;15.40;;;21.30;95.60;;;;;;4975046;28;20029;-87
2021/06/20 02:07:36;;;;;;;17.05;15.27;;;21.30;95.70;;;;;;4988661;28;20038;-87
2021/06/20 02:10:03;;;;;;;19.08;16.92;;;21.40;95.70;;;;;;4988720;28;20361;-87
2021/06/20 02:12:29;;;;;;;18.13;16.02;;;21.40;95.70;;;;;;4965309;28;20090;-87
2021/06/20 02:14:55;;;;;;;16.90;15.20;;;21.40;95.70;;;;;;5002056;28;20034;-88
2021/06/20 02:17:31;;;;;;;17.85;15.60;;;21.40;95.70;;;;;;5001480;28;20033;-87
2021/06/20 02:19:59;;;;;;;17.95;16.25;;;21.40;95.70;;;;;;4972187;28;20025;-87
2021/06/20 02:22:26;;;;;;;18.88;17.00;;;21.40;95.50;;;;;;5003249;28;20034;-87
2021/06/20 02:24:51;;;;;;;17.80;16.05;;;21.40;95.60;;;;;;5008588;28;20031;-87
2021/06/20 02:27:17;;;;;;;16.77;15.07;;;21.40;95.90;;;;;;5002145;28;20376;-87
2021/06/20 02:29:47;;;;;;;16.13;14.57;;;21.40;95.60;;;;;;5038971;28;20062;-87
2021/06/20 02:32:13;;;;;;;17.05;15.25;;;21.50;95.60;;;;;;5002586;28;20030;-87
2021/06/20 02:34:40;;;;;;;15.93;14.35;;;21.50;95.70;;;;;;5001761;28;20026;-87
2021/06/20 02:37:07;;;;;;;15.57;14.05;;;21.50;95.70;;;;;;5004384;28;20035;-87
2021/06/20 02:39:33;;;;;;;17.13;15.32;;;21.50;95.70;;;;;;4973616;28;20489;-87
2021/06/20 02:41:59;;;;;;;18.13;16.20;;;21.50;95.70;;;;;;4962759;28;20113;-87
2021/06/20 02:44:25;;;;;;;18.23;16.33;;;21.50;95.70;;;;;;4987930;28;20034;-87
2021/06/20 02:46:51;;;;;;;20.45;18.35;;;21.50;95.70;;;;;;4987288;28;20026;-88
2021/06/20 02:49:17;;;;;;;19.90;17.90;;;21.50;95.70;;;;;;4992757;28;20053;-87
2021/06/20 02:51:43;;;;;;;20.35;18.23;;;21.40;95.70;;;;;;4974886;28;20174;-87
2021/06/20 02:54:10;;;;;;;22.63;20.30;;;21.40;95.80;;;;;;5024059;28;20113;-88
2021/06/20 02:56:37;;;;;;;23.00;20.58;;;21.40;95.80;;;;;;5052990;28;20053;-87
2021/06/20 02:59:02;;;;;;;24.10;21.70;;;21.30;95.90;;;;;;5060122;28;20035;-87
2021/06/20 03:01:28;;;;;;;23.50;20.70;;;21.30;95.90;;;;;;5026296;28;20395;-88
2021/06/20 03:03:53;;;;;;;21.58;19.27;;;21.20;95.90;;;;;;4947542;28;20018;-87
2021/06/20 03:06:19;;;;;;;24.20;21.63;;;21.20;96.00;;;;;;5007238;28;20034;-87
2021/06/20 03:08:45;;;;;;;23.63;21.23;;;21.20;96.10;;;;;;5002948;28;20046;-87
2021/06/20 03:11:11;;;;;;;22.80;20.40;;;21.20;96.10;;;;;;5023020;28;20407;-87
2021/06/20 03:13:36;;;;;;;22.92;20.63;;;21.20;96.10;;;;;;5049058;28;20026;-87
2021/06/20 03:16:02;;;;;;;24.98;21.92;;;21.20;96.20;;;;;;4984426;28;20031;-87
2021/06/20 03:18:28;;;;;;;23.55;21.02;;;21.10;96.10;;;;;;5007719;28;20026;-88
2021/06/20 03:20:54;;;;;;;24.42;21.90;;;21.10;96.10;;;;;;5027276;28;20018;-87
2021/06/20 03:23:19;;;;;;;27.80;24.92;;;21.10;96.10;;;;;;5031851;28;20495;-88
2021/06/20 03:25:45;;;;;;;27.52;24.70;;;21.10;96.10;;;;;;5042936;28;20042;-87
2021/06/20 03:28:11;;;;;;;28.20;24.05;;;21.00;96.20;;;;;;5059422;28;20034;-87
2021/06/20 03:30:37;;;;;;;27.80;24.85;;;21.00;96.20;;;;;;5059690;28;20030;-87
2021/06/20 03:33:03;;;;;;;27.45;24.63;;;20.90;96.20;;;;;;4998228;28;20391;-88
2021/06/20 03:36:01;;;;;;;26.75;23.92;;;20.90;96.30;;;;;;5052692;28;20054;-87
2021/06/20 03:38:26;;;;;;;31.92;27.58;;;20.90;96.40;;;;;;4995169;28;20026;-86
2021/06/20 03:40:52;;;;;;;29.00;25.90;;;20.80;96.50;;;;;;4979061;28;20033;-86
2021/06/20 03:43:24;;;;;;;31.08;27.92;;;20.80;96.50;;;;;;4981025;28;20034;-87
2021/06/20 03:45:50;;;;;;;32.30;28.90;;;20.70;96.50;;;;;;5012252;28;20451;-87
2021/06/20 03:48:15;;;;;;;36.63;32.83;;;20.70;96.60;;;;;;4978593;28;20060;-87
2021/06/20 03:50:41;;;;;;;38.13;33.97;;;20.60;96.60;;;;;;4994096;28;20038;-87
2021/06/20 03:53:07;;;;;;;35.03;31.25;;;20.60;96.60;;;;;;4997503;28;20030;-86
2021/06/20 03:55:32;;;;;;;32.85;29.13;;;20.50;96.70;;;;;;5010482;28;20069;-87
2021/06/20 03:57:58;;;;;;;30.58;26.58;;;20.40;96.70;;;;;;4973523;28;20450;-86
2021/06/20 04:00:24;;;;;;;30.02;26.45;;;20.40;96.70;;;;;;4975937;28;20109;-87
2021/06/20 04:02:49;;;;;;;32.20;28.70;;;20.40;96.80;;;;;;4974176;28;20038;-87
2021/06/20 04:05:15;;;;;;;28.80;25.90;;;20.30;96.80;;;;;;4974059;28;20037;-87
2021/06/20 04:07:41;;;;;;;31.33;27.17;;;20.30;96.80;;;;;;4985862;28;20121;-87
2021/06/20 04:10:08;;;;;;;32.13;25.42;;;20.20;96.70;;;;;;4974136;28;20455;-87
2021/06/20 04:12:34;;;;;;;27.35;24.42;;;20.10;96.50;;;;;;4977378;28;20037;-88
2021/06/20 04:14:59;;;;;;;28.17;24.50;;;20.10;96.60;;;;;;5025324;28;20114;-87
2021/06/20 04:17:28;;;;;;;26.45;22.63;;;20.00;96.60;;;;;;4966725;28;20029;-87
2021/06/20 04:19:54;;;;;;;31.95;26.77;;;19.90;96.70;;;;;;4983535;28;20065;-86
2021/06/20 04:22:20;;;;;;;35.83;28.85;;;19.90;96.70;;;;;;4975956;28;20072;-87
2021/06/20 04:24:45;;;;;;;35.42;28.70;;;19.80;96.70;;;;;;4977133;28;20029;-86
2021/06/20 04:27:13;;;;;;;34.63;27.33;;;19.80;96.80;;;;;;4992977;28;20069;-85
2021/06/20 04:29:39;;;;;;;30.15;25.48;;;19.70;96.80;;;;;;4986845;28;20054;-86
2021/06/20 04:32:05;;;;;;;35.40;28.02;;;19.60;96.90;;;;;;4980443;28;20057;-87
2021/06/20 04:34:31;;;;;;;36.40;30.17;;;19.60;97.00;;;;;;5040017;28;20041;-86
2021/06/20 04:36:57;;;;;;;38.30;32.03;;;19.60;97.00;;;;;;5042062;28;20018;-87
2021/06/20 04:39:22;;;;;;;35.05;28.50;;;19.50;97.00;;;;;;5025008;28;20479;-85
2021/06/20 04:41:48;;;;;;;37.28;30.98;;;19.50;97.10;;;;;;5041633;28;20026;-86
2021/06/20 04:46:58;;;;;;;39.10;32.35;;;19.50;97.20;;;;;;5028919;28;20388;-87
2021/06/20 04:49:24;;;;;;;43.78;34.20;;;19.50;97.30;;;;;;5056563;28;20034;-86
2021/06/20 04:51:49;;;;;;;44.53;35.05;;;19.40;97.30;;;;;;4990892;28;20033;-85
2021/06/20 04:54:15;;;;;;;45.15;35.72;;;19.40;97.30;;;;;;5057489;28;20101;-86
2021/06/20 04:56:42;;;;;;;44.42;35.85;;;19.40;97.40;;;;;;4989617;28;20026;-86
2021/06/20 04:59:08;;;;;;;37.80;31.23;;;19.40;97.50;;;;;;4989380;28;20046;-86
2021/06/20 05:01:35;;;;;;;35.13;29.60;;;19.40;97.50;;;;;;5005810;28;20022;-86
2021/06/20 05:04:00;;;;;;;39.75;30.77;;;19.40;97.50;;;;;;4989363;28;20033;-87
2021/06/20 05:06:26;;;;;;;34.63;28.13;;;19.40;97.60;;;;;;5022401;28;20026;-86
2021/06/20 05:08:52;;;;;;;38.95;31.25;;;19.40;97.60;;;;;;5024516;28;20026;-86
2021/06/20 05:11:17;;;;;;;43.70;32.47;;;19.40;97.50;;;;;;4985363;28;20043;-87
2021/06/20 05:13:43;;;;;;;36.47;27.15;;;19.40;97.60;;;;;;5041188;28;20444;-86
2021/06/20 05:16:12;;;;;;;38.35;30.92;;;19.40;97.60;;;;;;5040708;28;20030;-86
2021/06/20 05:18:38;;;;;;;44.30;31.33;;;19.40;97.70;;;;;;4990641;28;20022;-86
2021/06/20 05:21:04;;;;;;;36.63;29.45;;;19.40;97.70;;;;;;4941188;28;20117;-86
2021/06/20 05:23:29;;;;;;;36.08;28.58;;;19.40;97.70;;;;;;5038165;28;20045;-87
2021/06/20 05:25:55;;;;;;;39.78;30.88;;;19.50;97.70;;;;;;5040742;28;20038;-88
2021/06/20 05:28:21;;;;;;;38.78;31.70;;;19.50;97.80;;;;;;4990265;28;20125;-87
2021/06/20 05:30:47;;;;;;;41.10;31.17;;;19.50;97.70;;;;;;5057398;28;20031;-87
2021/06/20 05:33:37;;;;;;;43.05;31.65;;;19.40;97.70;;;;;;4990293;28;20026;-87
2021/06/20 05:36:03;;;;;;;42.72;32.83;;;19.40;97.70;;;;;;5003101;28;20035;-86
2021/06/20 05:38:29;;;;;;;45.25;33.55;;;19.40;97.80;;;;;;5024710;28;20475;-86
2021/06/20 05:40:55;;;;;;;40.17;30.85;;;19.40;97.80;;;;;;5038780;28;20022;-87
2021/06/20 05:43:20;;;;;;;42.45;32.40;;;19.40;97.80;;;;;;5048919;28;20139;-87
2021/06/20 05:45:46;;;;;;;37.42;28.83;;;19.40;97.80;;;;;;4990025;28;20062;-87
2021/06/20 05:48:12;;;;;;;43.20;32.03;;;19.40;97.80;;;;;;5006009;28;20030;-86
2021/06/20 05:50:37;;;;;;;41.20;31.10;;;19.40;97.80;;;;;;5064815;28;20483;-87
2021/06/20 05:53:03;;;;;;;43.05;31.08;;;19.40;97.90;;;;;;4990031;28;20029;-87
2021/06/20 05:55:32;;;;;;;40.85;31.27;;;19.40;97.90;;;;;;5035507;28;20114;-86
2021/06/20 05:57:57;;;;;;;43.88;32.85;;;19.40;97.90;;;;;;5023809;28;20030;-86
2021/06/20 06:00:23;;;;;;;42.47;32.10;;;19.40;97.90;;;;;;5040209;28;20031;-87
2021/06/20 06:02:49;;;;;;;41.75;30.50;;;19.40;97.80;;;;;;4970743;28;20076;-88
2021/06/20 06:05:14;;;;;;;42.88;31.08;;;19.40;97.80;;;;;;4996789;28;20033;-87
2021/06/20 06:07:40;;;;;;;43.88;32.50;;;19.50;97.90;;;;;;4957653;28;20058;-87
2021/06/20 06:10:06;;;;;;;43.63;33.42;;;19.50;97.90;;;;;;5056899;28;20027;-88
2021/06/20 06:12:32;;;;;;;42.05;31.88;;;19.40;97.80;;;;;;5056542;28;20038;-87
2021/06/20 06:14:57;;;;;;;40.60;29.98;;;19.50;97.80;;;;;;5023798;28;20419;-87
2021/06/20 06:17:24;;;;;;;43.15;30.00;;;19.40;97.80;;;;;;4989793;28;20058;-85
2021/06/20 06:19:51;;;;;;;40.58;30.70;;;19.50;97.90;;;;;;4970545;28;20542;-86
2021/06/20 06:22:18;;;;;;;43.03;32.78;;;19.50;97.80;;;;;;5042717;28;20467;-86
2021/06/20 06:24:45;;;;;;;38.63;28.98;;;19.50;97.70;;;;;;5002482;28;20044;-86
2021/06/20 06:27:11;;;;;;;41.13;30.20;;;19.50;97.70;;;;;;5060583;28;20050;-86
2021/06/20 06:29:38;;;;;;;43.65;30.70;;;19.50;97.70;;;;;;5060545;28;20537;-87
2021/06/20 06:32:04;;;;;;;39.97;30.58;;;19.50;97.60;;;;;;5060350;28;20034;-87
2021/06/20 06:34:30;;;;;;;39.75;29.98;;;19.50;97.50;;;;;;5043452;28;20106;-86
2021/06/20 06:36:55;;;;;;;39.60;29.63;;;19.50;97.40;;;;;;5050069;28;20480;-86
2021/06/20 06:39:21;;;;;;;37.97;29.83;;;19.50;97.40;;;;;;4980233;28;20496;-87
2021/06/20 06:41:47;;;;;;;40.28;29.73;;;19.50;97.40;;;;;;5000744;28;20384;-86
2021/06/20 06:44:13;;;;;;;37.17;27.73;;;19.50;97.40;;;;;;5064552;28;20070;-86
2021/06/20 06:46:38;;;;;;;40.00;30.95;;;19.50;97.40;;;;;;5043308;28;20030;-86
2021/06/20 06:49:04;;;;;;;35.58;27.58;;;19.50;97.40;;;;;;5043239;28;20041;-86
2021/06/20 06:51:30;;;;;;;41.15;32.08;;;19.60;97.40;;;;;;5059989;28;20038;-87
2021/06/20 06:53:55;;;;;;;40.53;31.65;;;19.60;97.20;;;;;;5054093;28;20019;-87
2021/06/20 06:56:22;;;;;;;40.08;30.58;;;19.60;97.20;;;;;;5012112;28;20026;-86
2021/06/20 06:58:47;;;;;;;38.17;30.02;;;19.70;97.00;;;;;;5043355;28;20030;-87
2021/06/20 07:01:13;;;;;;;37.13;29.00;;;19.70;96.90;;;;;;5060092;28;20100;-88
2021/06/20 07:03:39;;;;;;;42.35;33.50;;;19.70;96.90;;;;;;5043222;28;20019;-87
2021/06/20 07:06:05;;;;;;;39.05;31.05;;;19.70;96.60;;;;;;4991215;28;20061;-87
2021/06/20 07:08:30;;;;;;;37.22;30.27;;;19.70;96.60;;;;;;4984161;28;20031;-87
2021/06/20 07:10:56;;;;;;;37.42;30.15;;;19.70;97.00;;;;;;5006223;28;20030;-87
2021/06/20 07:13:22;;;;;;;40.13;32.22;;;19.80;96.60;;;;;;5011998;28;20034;-88
2021/06/20 07:15:47;;;;;;;39.53;31.80;;;19.80;96.60;;;;;;5008217;28;20360;-87
2021/06/20 07:18:15;;;;;;;36.50;30.17;;;19.80;96.20;;;;;;5002079;28;20037;-86
2021/06/20 07:20:40;;;;;;;39.15;30.23;;;19.80;96.20;;;;;;5016740;28;20062;-86
2021/06/20 07:23:06;;;;;;;35.13;28.65;;;19.80;96.30;;;;;;5045725;28;20493;-87
2021/06/20 07:25:32;;;;;;;39.55;29.63;;;19.80;96.30;;;;;;4993470;28;20030;-87
2021/06/20 07:27:58;;;;;;;39.10;30.63;;;19.90;96.50;;;;;;4998284;23;20068;-85
2021/06/20 07:30:25;;;;;;;38.83;30.13;;;19.90;96.40;;;;;;5083673;28;20491;-85
2021/06/20 07:33:13;;;;;;;38.10;28.27;;;19.90;96.40;;;;;;5047797;28;20039;-85
2021/06/20 07:35:39;;;;;;;37.97;27.00;;;19.90;96.00;;;;;;5064684;28;20036;-83
2021/06/20 07:38:04;;;;;;;35.35;28.30;;;19.90;96.00;;;;;;5044146;28;20108;-85
2021/06/20 07:40:30;;;;;;;32.15;25.52;;;19.80;96.00;;;;;;5050098;28;20035;-84
2021/06/20 07:42:55;;;;;;;34.13;26.27;;;19.90;96.10;;;;;;5034287;28;20020;-85
2021/06/20 07:45:21;;;;;;;32.42;24.67;;;19.90;96.10;;;;;;5043399;28;20082;-85
2021/06/20 07:47:47;;;;;;;33.85;25.38;;;19.90;96.10;;;;;;5066102;28;20138;-84
2021/06/20 07:50:13;;;;;;;31.73;24.00;;;19.90;96.00;;;;;;5045661;28;20050;-85
2021/06/20 07:52:39;;;;;;;32.13;25.30;;;20.00;96.00;;;;;;5069865;28;20163;-85
2021/06/20 07:55:06;;;;;;;28.75;22.63;;;20.00;95.70;;;;;;5052427;28;20028;-85
2021/06/20 07:57:32;;;;;;;28.48;21.17;;;20.00;95.80;;;;;;5045719;28;20153;-85
2021/06/20 07:59:58;;;;;;;29.00;22.38;;;20.10;95.80;;;;;;5076774;28;20159;-85
2021/06/20 08:02:24;;;;;;;29.80;23.00;;;20.10;95.60;;;;;;5059439;28;20032;-84
2021/06/20 08:04:50;;;;;;;24.15;20.40;;;20.20;95.40;;;;;;5065240;28;20028;-85
2021/06/20 08:07:16;;;;;;;27.83;21.48;;;20.20;95.60;;;;;;5061521;28;20119;-85
2021/06/20 08:09:57;;;;;;;27.88;21.02;;;20.30;95.10;;;;;;5039614;28;20039;-85
2021/06/20 08:12:23;;;;;;;26.35;21.23;;;20.30;94.80;;;;;;5039566;28;20486;-85
2021/06/20 08:14:50;;;;;;;22.85;19.08;;;20.30;94.60;;;;;;5056129;28;20034;-85
2021/06/20 08:17:16;;;;;;;25.02;19.67;;;20.30;94.50;;;;;;5036275;28;20120;-84
2021/06/20 08:20:19;;;;;;;23.85;19.38;;;20.30;94.70;;;;;;5058586;28;20202;-85
2021/06/20 08:22:45;;;;;;;22.60;17.83;;;20.30;94.50;;;;;;5056736;28;20016;-85
2021/06/20 08:25:12;;;;;;;25.00;18.95;;;20.30;94.60;;;;;;5048570;28;20036;-85
2021/06/20 08:27:37;;;;;;;21.80;17.70;;;20.40;94.60;;;;;;5048002;28;20029;-85
2021/06/20 08:30:06;;;;;;;23.20;18.83;;;20.40;94.60;;;;;;5056720;28;20055;-85
2021/06/20 08:32:32;;;;;;;26.98;19.42;;;20.40;94.70;;;;;;5073126;28;20031;-85
2021/06/20 08:35:00;;;;;;;21.90;18.15;;;20.40;94.50;;;;;;5023148;28;20028;-85
2021/06/20 08:37:26;;;;;;;22.40;18.23;;;20.40;94.30;;;;;;5040051;28;20474;-85
2021/06/20 08:39:52;;;;;;;23.08;17.55;;;20.40;94.30;;;;;;5068827;28;20129;-85
2021/06/20 08:42:18;;;;;;;23.90;18.15;;;20.40;94.20;;;;;;5069051;28;20100;-85
2021/06/20 08:44:44;;;;;;;22.27;17.70;;;20.40;94.20;;;;;;5055939;28;20039;-85
2021/06/20 08:47:09;;;;;;;21.15;16.63;;;20.40;94.10;;;;;;5055710;28;20397;-84
2021/06/20 08:49:35;;;;;;;22.40;16.20;;;20.40;94.40;;;;;;5069643;28;20027;-84
2021/06/20 08:52:02;;;;;;;21.45;16.58;;;20.40;94.40;;;;;;5055401;28;20037;-85
2021/06/20 08:54:29;;;;;;;20.45;14.50;;;20.50;94.30;;;;;;5070227;28;20024;-84
2021/06/20 08:56:55;;;;;;;18.65;15.68;;;20.50;94.20;;;;;;5051883;28;20024;-84
2021/06/20 08:59:23;;;;;;;20.10;15.70;;;20.50;94.10;;;;;;5038583;28;20024;-84
2021/06/20 09:01:49;;;;;;;20.83;16.60;;;20.50;94.00;;;;;;5057844;28;20023;-85
2021/06/20 09:04:30;;;;;;;20.73;15.60;;;20.50;93.80;;;;;;5063889;28;20063;-85
2021/06/20 09:06:58;;;;;;;20.50;16.98;;;20.40;93.70;;;;;;5055021;28;20374;-84
2021/06/20 09:09:33;;;;;;;19.10;15.50;;;20.40;93.70;;;;;;5067068;28;20092;-85
2021/06/20 09:12:11;;;;;;;19.30;15.07;;;20.40;93.80;;;;;;5060965;28;20032;-85
2021/06/20 09:14:48;;;;;;;18.25;14.95;;;20.40;94.00;;;;;;5062220;28;20085;-85
2021/06/20 09:17:25;;;;;;;19.98;14.95;;;20.40;93.60;;;;;;5063936;28;20024;-84
2021/06/20 09:19:59;;;;;;;18.40;14.93;;;20.50;93.60;;;;;;5061314;28;20013;-84
2021/06/20 09:22:26;;;;;;;16.73;13.77;;;20.50;93.50;;;;;;5065172;28;20081;-85
2021/06/20 09:25:08;;;;;;;16.75;13.77;;;20.50;93.50;;;;;;5061775;28;20020;-84
2021/06/20 09:27:35;;;;;;;18.33;13.55;;;20.60;93.10;;;;;;5049216;28;20027;-84
2021/06/20 09:30:16;;;;;;;18.15;13.55;;;20.60;93.00;;;;;;5045877;28;20044;-86
2021/06/20 09:33:19;;;;;;;14.18;10.93;;;20.60;93.10;;;;;;5047576;28;20027;-84
2021/06/20 09:35:55;;;;;;;13.13;10.65;;;20.70;93.40;;;;;;5073326;28;20043;-85
2021/06/20 09:38:23;;;;;;;13.65;10.02;;;20.80;93.50;;;;;;5060719;28;20410;-85
2021/06/20 09:41:12;;;;;;;15.55;11.20;;;20.80;93.50;;;;;;5068614;28;20012;-85
2021/06/20 09:43:50;;;;;;;13.48;11.27;;;21.00;93.30;;;;;;5038400;28;20385;-85
2021/06/20 09:46:15;;;;;;;14.43;11.23;;;21.00;92.80;;;;;;5046747;28;20028;-84
2021/06/20 09:48:41;;;;;;;12.57;10.02;;;21.10;92.70;;;;;;5074667;28;20032;-85
2021/06/20 09:51:15;;;;;;;15.32;10.75;;;21.20;92.90;;;;;;5056578;28;20020;-84
2021/06/20 09:53:43;;;;;;;12.43;10.20;;;21.20;92.40;;;;;;5054532;28;20021;-85
2021/06/20 09:56:29;;;;;;;10.85;8.55;;;21.30;92.30;;;;;;5038614;28;20051;-85
2021/06/20 09:59:04;;;;;;;12.57;8.82;;;21.40;92.40;;;;;;5070745;28;20377;-85
2021/06/20 10:01:33;;;;;;;11.40;8.65;;;21.50;91.90;;;;;;5069563;28;20013;-84
2021/06/20 10:03:59;;;;;;;10.65;8.32;;;21.60;91.80;;;;;;5058433;28;20044;-84
2021/06/20 10:06:26;;;;;;;9.93;7.10;;;21.70;91.50;;;;;;5055380;28;20017;-85
2021/06/20 10:08:51;;;;;;;11.15;8.25;;;21.70;91.60;;;;;;5068235;28;20496;-84
2021/06/20 10:11:18;;;;;;;10.13;8.07;;;21.80;91.60;;;;;;5047382;28;20056;-85
2021/06/20 10:13:45;;;;;;;10.48;8.23;;;21.80;91.60;;;;;;5091482;28;20024;-84
2021/06/20 10:16:16;;;;;;;9.20;7.45;;;21.90;91.50;;;;;;5041113;28;20040;-84
2021/06/20 10:18:54;;;;;;;11.48;8.20;;;21.90;91.50;;;;;;5076988;28;20039;-85
2021/06/20 10:22:01;;;;;;;11.43;8.18;;;22.00;91.40;;;;;;5069061;28;20479;-85
2021/06/20 10:24:28;;;;;;;10.80;7.55;;;22.10;91.50;;;;;;5061325;28;20064;-84
2021/06/20 10:27:06;;;;;;;11.63;8.70;;;22.20;91.50;;;;;;5047381;28;20024;-85
2021/06/20 10:29:37;;;;;;;10.00;7.60;;;22.30;90.50;;;;;;5082483;28;20066;-85
2021/06/20 10:32:17;;;;;;;9.93;7.82;;;22.30;90.10;;;;;;5052216;28;20083;-85
2021/06/20 10:34:57;;;;;;;12.38;8.02;;;22.30;90.30;;;;;;5051523;28;20021;-85
2021/06/20 10:38:00;;;;;;;8.80;7.15;;;22.40;89.80;;;;;;5065615;28;20026;-85
2021/06/20 10:40:35;;;;;;;9.02;7.72;;;22.50;89.70;;;;;;5056159;28;20008;-84
2021/06/20 10:43:14;;;;;;;8.48;6.93;;;22.50;88.90;;;;;;5057553;28;20037;-85
2021/06/20 10:45:40;;;;;;;9.00;6.47;;;22.50;88.90;;;;;;5077503;28;20104;-84
2021/06/20 10:48:18;;;;;;;8.27;6.32;;;22.50;89.10;;;;;;5065620;28;20051;-85
2021/06/20 10:50:48;;;;;;;7.85;6.63;;;22.60;89.80;;;;;;5057295;28;20020;-85
2021/06/20 10:53:14;;;;;;;11.40;8.63;;;22.70;90.00;;;;;;5087613;28;20035;-85
2021/06/20 10:55:45;;;;;;;10.10;7.57;;;22.70;89.60;;;;;;5059443;28;20021;-85
2021/06/20 10:58:27;;;;;;;8.70;6.35;;;22.80;89.20;;;;;;5057360;28;20038;-85
2021/06/20 11:01:10;;;;;;;6.85;5.43;;;22.80;89.20;;;;;;5057245;28;20020;-86
2021/06/20 11:03:36;;;;;;;7.70;6.03;;;22.90;89.80;;;;;;5087021;28;20493;-85
2021/06/20 11:06:08;;;;;;;7.43;6.22;;;23.00;89.50;;;;;;5072366;28;20027;-84
2021/06/20 11:08:39;;;;;;;8.38;6.60;;;23.10;88.90;;;;;;5069234;28;20036;-84
2021/06/20 11:11:17;;;;;;;11.35;6.78;;;23.20;88.00;;;;;;5063179;28;20051;-84
2021/06/20 11:13:59;;;;;;;8.40;6.60;;;23.30;88.20;;;;;;5060863;28;20085;-85
2021/06/20 11:16:46;;;;;;;8.50;6.57;;;23.30;87.80;;;;;;5061733;28;20035;-85
2021/06/20 11:19:20;;;;;;;7.65;6.30;;;23.40;88.40;;;;;;5057110;28;20077;-84
2021/06/20 11:21:56;;;;;;;8.07;6.32;;;23.40;86.40;;;;;;5057103;28;20054;-85
2021/06/20 11:24:27;;;;;;;9.45;7.28;;;23.40;86.60;;;;;;5057087;28;20033;-84
2021/06/20 11:26:56;;;;;;;8.45;6.60;;;23.40;85.40;;;;;;5064850;28;20023;-85
2021/06/20 11:29:22;;;;;;;7.75;6.10;;;23.40;85.00;;;;;;5080618;28;20055;-85
2021/06/20 11:31:53;;;;;;;7.15;5.75;;;23.40;84.30;;;;;;5070809;28;20009;-85
2021/06/20 11:34:20;;;;;;;6.57;5.30;;;23.40;84.20;;;;;;5062574;28;20047;-84
2021/06/20 11:36:46;;;;;;;8.70;6.13;;;23.40;84.80;;;;;;5040409;28;20559;-85
2021/06/20 11:39:13;;;;;;;7.75;5.72;;;23.40;83.70;;;;;;5056461;28;20466;-84
2021/06/20 11:41:48;;;;;;;6.43;4.75;;;23.40;83.50;;;;;;5040142;28;20021;-84
2021/06/20 11:44:15;;;;;;;5.47;4.20;;;23.40;84.50;;;;;;5050790;28;20027;-84
2021/06/20 11:46:42;;;;;;;6.10;5.20;;;23.50;85.20;;;;;;5040162;28;20013;-84
2021/06/20 11:49:11;;;;;;;6.60;5.10;;;23.60;84.50;;;;;;5088958;28;20025;-84
2021/06/20 11:51:40;;;;;;;8.38;5.80;;;23.70;84.20;;;;;;5074472;28;20074;-84
2021/06/20 11:54:13;;;;;;;9.63;5.90;;;23.80;83.70;;;;;;5058648;28;20454;-84
2021/06/20 11:56:40;;;;;;;6.70;5.82;;;23.90;83.20;;;;;;5077021;28;20051;-84
2021/06/20 11:59:07;;;;;;;7.82;5.55;;;23.90;83.20;;;;;;5076456;28;20020;-84
2021/06/20 12:01:40;;;;;;;7.15;5.43;;;24.00;82.70;;;;;;5078945;28;20373;-84
2021/06/20 12:04:07;;;;;;;6.85;5.65;;;24.00;83.10;;;;;;5050389;28;20029;-84
2021/06/20 12:06:33;;;;;;;7.40;5.38;;;24.10;83.10;;;;;;5025472;28;20056;-84
2021/06/20 12:08:59;;;;;;;6.93;5.25;;;24.10;83.60;;;;;;5039467;28;20051;-84
2021/06/20 12:11:29;;;;;;;7.13;5.43;;;24.20;83.00;;;;;;5055984;28;20116;-84
2021/06/20 12:13:55;;;;;;;8.02;5.22;;;24.20;83.00;;;;;;5056023;28;20036;-84
2021/06/20 12:16:20;;;;;;;7.07;5.32;;;24.20;83.00;;;;;;5039245;28;20031;-84
2021/06/20 12:18:46;;;;;;;7.22;5.40;;;24.20;82.40;;;;;;5058428;28;20458;-84
2021/06/20 12:21:25;;;;;;;7.80;5.50;;;24.20;81.80;;;;;;5031185;28;20466;-84
2021/06/20 12:23:56;;;;;;;8.23;5.50;;;24.20;81.00;;;;;;5059363;28;20491;-84
2021/06/20 12:26:31;;;;;;;6.05;5.00;;;24.10;81.20;;;;;;5039338;28;20069;-84
2021/06/20 12:28:58;;;;;;;7.55;5.40;;;24.10;81.80;;;;;;5055611;28;20040;-84
2021/06/20 12:31:25;;;;;;;6.85;5.75;;;24.10;81.10;;;;;;5073783;28;20024;-84
2021/06/20 12:34:06;;;;;;;8.40;5.97;;;24.10;80.40;;;;;;5052886;28;20032;-85
2021/06/20 12:36:32;;;;;;;6.60;4.82;;;24.10;80.90;;;;;;5055010;28;20043;-84
2021/06/20 12:38:59;;;;;;;5.63;4.45;;;24.10;81.10;;;;;;5077597;28;20466;-84
2021/06/20 12:41:27;;;;;;;5.28;4.20;;;24.10;81.80;;;;;;5073428;28;20032;-84
2021/06/20 12:44:01;;;;;;;6.35;5.03;;;24.20;82.20;;;;;;5055524;28;20049;-84